Time;durP1;ratioP1;P1;durP2;ratioP2;P2;SDS_P1;SDS_P2;PMS_P1;PMS_P2;Temp;Humidity;BMP_temperature;BMP_pressure;BME280_temperature;BME280_humidity;BME280_pressure;Samples;Min_cycle;Max_cycle;Signal;HPM_P1;HPM_P2
2022/03/13 00:02:45;;;;;;;18.08;9.23;;;7.90;99.90;;;;;;6747819;88;20303;-74
2022/03/13 00:12:48;;;;;;;15.65;8.30;;;7.90;99.90;;;;;;6747221;88;20685;-73
2022/03/13 00:22:48;;;;;;;16.27;8.65;;;7.90;99.90;;;;;;6746937;88;20218;-74
2022/03/13 00:32:49;;;;;;;16.23;8.52;;;7.90;99.90;;;;;;6748316;87;20192;-73
2022/03/13 00:42:50;;;;;;;19.67;9.23;;;7.60;99.90;;;;;;6747667;87;20628;-74
2022/03/13 00:52:51;;;;;;;17.33;9.13;;;7.40;99.90;;;;;;6746482;88;20247;-74
2022/03/13 01:02:52;;;;;;;17.92;9.40;;;6.90;99.90;;;;;;6749497;88;20264;-73
2022/03/13 01:12:53;;;;;;;18.33;9.68;;;6.80;99.90;;;;;;6749536;88;20185;-75
2022/03/13 01:22:54;;;;;;;18.05;9.63;;;6.60;99.90;;;;;;6749082;88;20185;-74
2022/03/13 01:32:54;;;;;;;21.00;9.27;;;6.40;99.90;;;;;;6748609;88;20336;-74
2022/03/13 01:42:55;;;;;;;19.95;9.60;;;6.10;99.90;;;;;;6748550;87;20220;-74
2022/03/13 01:52:56;;;;;;;18.85;9.43;;;5.90;99.90;;;;;;6758114;87;20184;-73
2022/03/13 02:02:56;;;;;;;17.25;9.38;;;6.10;99.90;;;;;;6751356;88;20651;-73
2022/03/13 02:12:58;;;;;;;18.33;9.45;;;6.10;99.90;;;;;;6750527;88;20636;-75
2022/03/13 02:23:00;;;;;;;20.60;10.13;;;5.90;99.90;;;;;;6759534;87;20300;-75
2022/03/13 02:33:01;;;;;;;18.77;9.82;;;5.40;99.90;;;;;;6752496;87;20230;-74
2022/03/13 02:43:01;;;;;;;20.42;10.05;;;5.20;99.90;;;;;;6749224;87;20192;-74
2022/03/13 02:53:03;;;;;;;19.50;9.05;;;5.20;99.90;;;;;;6752874;87;20200;-74
2022/03/13 03:03:03;;;;;;;16.70;8.80;;;5.30;99.90;;;;;;6745186;88;20197;-75
2022/03/13 03:13:07;;;;;;;21.10;9.40;;;5.20;99.90;;;;;;6757202;88;20214;-75
2022/03/13 03:23:08;;;;;;;20.42;9.07;;;5.10;99.90;;;;;;6764842;88;20192;-75
2022/03/13 03:33:09;;;;;;;18.33;8.32;;;5.20;99.90;;;;;;6747829;88;20200;-74
2022/03/13 03:43:09;;;;;;;15.48;7.28;;;5.00;99.90;;;;;;6746034;88;20216;-74
2022/03/13 03:53:10;;;;;;;13.30;7.65;;;5.40;99.90;;;;;;6749089;88;20222;-74
2022/03/13 04:03:10;;;;;;;13.25;6.68;;;5.70;99.90;;;;;;6747423;88;20188;-74
2022/03/13 04:13:11;;;;;;;13.88;6.55;;;5.80;99.90;;;;;;6747984;88;20187;-75
2022/03/13 04:23:11;;;;;;;12.77;6.40;;;6.00;98.40;;;;;;6747825;88;20180;-75
2022/03/13 04:33:16;;;;;;;14.77;6.93;;;6.20;95.80;;;;;;6749921;88;20192;-74
2022/03/13 04:43:16;;;;;;;16.37;7.18;;;6.40;95.50;;;;;;6742746;88;20254;-75
2022/03/13 04:53:17;;;;;;;14.25;7.10;;;6.40;95.90;;;;;;6752070;87;20315;-74
2022/03/13 05:03:17;;;;;;;15.10;6.97;;;6.40;95.30;;;;;;6755483;88;20188;-75
2022/03/13 05:13:19;;;;;;;14.25;6.85;;;6.70;94.00;;;;;;6749614;88;20939;-74
2022/03/13 05:23:19;;;;;;;11.12;6.20;;;6.80;92.30;;;;;;6749757;88;20188;-75
2022/03/13 05:33:20;;;;;;;14.63;6.22;;;6.90;91.80;;;;;;6756587;87;20263;-74
2022/03/13 05:43:22;;;;;;;11.27;6.05;;;7.00;91.40;;;;;;6753344;87;20180;-75
2022/03/13 05:53:23;;;;;;;13.13;6.35;;;7.00;90.50;;;;;;6757450;87;20204;-75
2022/03/13 06:03:23;;;;;;;10.77;5.90;;;7.00;90.50;;;;;;6757396;87;20184;-73
2022/03/13 06:13:24;;;;;;;13.73;6.22;;;7.10;87.40;;;;;;6757356;87;20207;-73
2022/03/13 06:23:25;;;;;;;13.00;6.43;;;7.20;84.90;;;;;;6759711;87;20314;-75
2022/03/13 06:33:26;;;;;;;11.57;5.78;;;7.30;84.00;;;;;;6761019;87;20192;-75
2022/03/13 06:43:26;;;;;;;11.88;5.50;;;7.30;82.90;;;;;;6755874;87;20220;-75
2022/03/13 06:53:28;;;;;;;10.55;5.90;;;7.30;83.10;;;;;;6757291;87;20221;-75
2022/03/13 07:03:28;;;;;;;11.38;5.68;;;7.40;82.50;;;;;;6764253;87;20260;-73
2022/03/13 07:13:32;;;;;;;13.18;6.05;;;7.30;82.20;;;;;;6776111;87;20203;-75
2022/03/13 07:23:33;;;;;;;15.60;6.07;;;7.30;83.40;;;;;;6766819;87;20273;-74
2022/03/13 07:33:33;;;;;;;10.55;6.15;;;7.30;83.00;;;;;;6749635;88;20196;-73
2022/03/13 07:43:34;;;;;;;10.38;5.47;;;7.40;83.40;;;;;;6756344;87;20287;-74
2022/03/13 07:53:35;;;;;;;14.15;6.45;;;7.60;82.60;;;;;;6749116;88;20179;-76
2022/03/13 08:03:36;;;;;;;13.43;6.95;;;7.90;81.80;;;;;;6758892;88;20264;-75
2022/03/13 08:13:36;;;;;;;11.63;5.72;;;8.20;80.80;;;;;;6750392;87;20244;-75
2022/03/13 08:23:37;;;;;;;10.98;5.47;;;8.20;79.50;;;;;;6752094;87;20232;-75
2022/03/13 08:33:37;;;;;;;10.65;5.95;;;8.40;79.10;;;;;;6752718;87;21093;-76
2022/03/13 08:43:38;;;;;;;10.43;6.00;;;8.80;77.00;;;;;;6761182;87;20173;-75
2022/03/13 08:53:39;;;;;;;12.93;6.45;;;9.40;75.30;;;;;;6754583;87;20259;-75
2022/03/13 09:03:39;;;;;;;11.68;5.95;;;9.60;73.80;;;;;;6749871;87;20205;-76
2022/03/13 09:13:40;;;;;;;13.73;6.22;;;10.40;72.30;;;;;;6747861;87;20173;-74
2022/03/13 09:23:40;;;;;;;12.87;6.87;;;10.20;71.40;;;;;;6750443;87;20196;-74
2022/03/13 09:33:50;;;;;;;14.07;7.57;;;10.70;71.20;;;;;;6758068;87;20485;-75
2022/03/13 09:43:52;;;;;;;14.75;7.37;;;11.20;70.80;;;;;;6770395;87;20231;-76
2022/03/13 09:53:52;;;;;;;13.27;6.70;;;12.20;69.90;;;;;;6746649;87;20200;-76
2022/03/13 10:03:54;;;;;;;15.30;8.38;;;12.40;68.90;;;;;;6764842;87;20199;-76
2022/03/13 10:14:06;;;;;;;18.70;8.48;;;12.50;68.90;;;;;;6772930;87;20222;-76
2022/03/13 10:24:10;;;;;;;14.75;7.57;;;13.00;67.50;;;;;;6777003;87;20241;-75
2022/03/13 10:34:12;;;;;;;14.43;7.85;;;13.10;68.80;;;;;;6777726;87;20177;-77
2022/03/13 10:44:52;;;;;;;19.20;10.30;;;13.30;69.00;;;;;;6771455;87;20208;-77
2022/03/13 10:54:54;;;;;;;14.87;7.90;;;14.40;70.00;;;;;;6774825;87;20735;-75
2022/03/13 11:04:57;;;;;;;15.27;8.23;;;14.70;67.90;;;;;;6772545;87;20347;-78
2022/03/13 11:15:00;;;;;;;16.55;8.82;;;15.80;67.10;;;;;;6778467;87;20388;-79
2022/03/13 11:25:07;;;;;;;14.75;8.07;;;16.40;67.50;;;;;;6758834;87;20282;-77
2022/03/13 11:35:10;;;;;;;14.02;8.70;;;16.20;68.60;;;;;;6768409;77;20294;-80
2022/03/13 11:45:30;;;;;;;17.05;8.75;;;16.70;69.10;;;;;;6762244;88;20270;-80
2022/03/13 11:55:30;;;;;;;17.02;9.88;;;16.60;69.10;;;;;;6756704;88;20221;-78
2022/03/13 12:05:33;;;;;;;20.12;10.52;;;16.00;69.90;;;;;;6753707;88;20176;-78
2022/03/13 12:15:37;;;;;;;14.77;8.52;;;16.50;68.80;;;;;;6747126;88;20586;-77
2022/03/13 12:25:38;;;;;;;14.32;8.65;;;17.70;67.90;;;;;;6745854;88;20202;-77
2022/03/13 12:35:38;;;;;;;9.60;6.25;;;17.40;68.70;;;;;;6745401;87;20693;-77
2022/03/13 12:45:51;;;;;;;13.82;7.47;;;17.20;68.90;;;;;;6744815;87;20734;-77
2022/03/13 12:55:52;;;;;;;13.45;7.45;;;17.70;67.60;;;;;;6748078;88;20395;-78
2022/03/13 13:05:53;;;;;;;10.43;6.25;;;17.30;69.00;;;;;;6747325;88;20323;-73
2022/03/13 13:15:55;;;;;;;10.88;5.57;;;16.30;69.30;;;;;;6748213;87;20181;-77
2022/03/13 13:25:56;;;;;;;13.40;7.78;;;16.30;69.80;;;;;;6751824;88;20898;-75
2022/03/13 13:35:58;;;;;;;12.95;6.93;;;15.90;70.70;;;;;;6754953;87;20201;-78
2022/03/13 13:46:08;;;;;;;11.90;7.00;;;16.10;70.10;;;;;;6762436;88;20718;-76
2022/03/13 13:56:12;;;;;;;12.18;6.15;;;16.50;69.80;;;;;;6763542;87;20183;-79
2022/03/13 14:06:13;;;;;;;13.57;6.72;;;16.90;68.80;;;;;;6763722;87;20671;-78
2022/03/13 14:16:20;;;;;;;11.18;6.62;;;17.00;68.70;;;;;;6771378;88;20209;-80
2022/03/13 14:26:21;;;;;;;10.23;6.30;;;16.70;68.90;;;;;;6773699;88;20293;-80
2022/03/13 14:36:22;;;;;;;14.17;7.20;;;17.00;69.30;;;;;;6753846;88;20655;-81
2022/03/13 14:57:26;;;;;;;10.30;6.45;;;16.70;70.30;;;;;;6747334;88;20181;-79
2022/03/13 15:07:26;;;;;;;10.85;6.70;;;16.80;70.00;;;;;;6742937;88;20220;-81
2022/03/13 15:17:27;;;;;;;10.95;5.30;;;16.80;69.60;;;;;;6746302;88;20258;-78
2022/03/13 15:27:28;;;;;;;9.75;5.40;;;16.60;69.50;;;;;;6745092;88;20256;-79
2022/03/13 15:37:29;;;;;;;8.63;5.22;;;16.50;69.60;;;;;;6744918;88;20663;-79
2022/03/13 15:47:29;;;;;;;10.82;5.20;;;16.50;69.70;;;;;;6739150;88;20230;-79
2022/03/13 15:57:30;;;;;;;7.63;4.90;;;16.50;70.00;;;;;;6740529;88;20209;-77
2022/03/13 16:07:31;;;;;;;7.87;4.82;;;16.40;70.40;;;;;;6730086;88;20508;-79
2022/03/13 16:17:31;;;;;;;8.93;5.30;;;16.20;70.70;;;;;;6724060;88;20192;-78
2022/03/13 16:27:32;;;;;;;10.35;5.55;;;16.10;70.90;;;;;;6733766;88;20640;-79
2022/03/13 16:37:34;;;;;;;10.75;6.25;;;16.10;71.70;;;;;;6727464;88;20215;-79
2022/03/13 16:47:35;;;;;;;9.73;5.35;;;15.90;73.20;;;;;;6727567;88;20200;-80
2022/03/13 16:57:37;;;;;;;8.45;4.22;;;15.90;74.40;;;;;;6725409;88;20239;-78
2022/03/13 17:07:37;;;;;;;4.43;2.00;;;15.60;76.10;;;;;;6746441;88;20255;-81
2022/03/13 17:17:39;;;;;;;3.00;1.10;;;15.60;77.90;;;;;;6749476;88;20208;-80
2022/03/13 17:27:39;;;;;;;2.78;1.35;;;15.40;79.60;;;;;;6744662;77;20196;-79
2022/03/13 17:37:40;;;;;;;2.00;1.20;;;15.20;80.90;;;;;;6720577;88;20197;-77
2022/03/13 17:47:41;;;;;;;2.22;1.12;;;15.10;82.20;;;;;;6711860;88;20250;-78
2022/03/13 17:57:42;;;;;;;2.92;1.40;;;15.00;83.00;;;;;;6715354;88;20202;-79
2022/03/13 18:07:43;;;;;;;4.37;2.40;;;14.80;84.10;;;;;;6708832;88;20211;-78
2022/03/13 18:17:44;;;;;;;4.10;1.60;;;14.60;85.10;;;;;;6704486;88;20247;-78
2022/03/13 18:27:44;;;;;;;3.87;1.75;;;14.50;86.00;;;;;;6703070;88;20289;-78
2022/03/13 18:37:45;;;;;;;4.07;2.00;;;14.20;87.20;;;;;;6725791;88;20246;-78
2022/03/13 18:47:46;;;;;;;4.25;2.60;;;13.90;88.60;;;;;;6712757;88;20301;-78
2022/03/13 18:57:47;;;;;;;4.20;2.03;;;13.80;90.20;;;;;;6707444;88;20200;-78
2022/03/13 19:07:47;;;;;;;2.80;1.80;;;13.70;90.60;;;;;;6703895;88;20275;-79
2022/03/13 19:17:48;;;;;;;4.20;2.40;;;13.40;91.80;;;;;;6719066;88;20251;-79
2022/03/13 19:27:55;;;;;;;3.33;2.03;;;13.50;92.70;;;;;;6717241;88;20555;-78
2022/03/13 19:37:58;;;;;;;4.70;2.40;;;13.30;93.80;;;;;;6656712;88;20986;-79
2022/03/13 19:47:59;;;;;;;3.20;2.08;;;13.20;95.20;;;;;;6662635;88;20197;-78
2022/03/13 19:57:59;;;;;;;3.85;2.05;;;13.00;96.40;;;;;;6660593;88;20169;-78
2022/03/13 20:08:00;;;;;;;3.43;2.10;;;12.90;97.60;;;;;;6641293;88;20360;-78
2022/03/13 20:18:01;;;;;;;4.10;2.23;;;12.70;98.40;;;;;;6667744;88;20514;-79
2022/03/13 20:28:01;;;;;;;2.77;1.80;;;12.50;99.90;;;;;;6657489;88;20193;-75
2022/03/13 20:38:05;;;;;;;2.83;1.50;;;12.60;99.90;;;;;;6653640;88;21082;-80
2022/03/13 20:48:05;;;;;;;2.72;1.40;;;12.50;99.90;;;;;;6642394;88;20181;-79
2022/03/13 20:58:07;;;;;;;2.83;1.55;;;12.20;99.90;;;;;;6634184;89;20209;-79
2022/03/13 21:08:08;;;;;;;2.53;1.60;;;12.30;99.90;;;;;;6648116;88;20241;-80
2022/03/13 21:18:09;;;;;;;3.78;1.95;;;12.30;99.90;;;;;;6642925;89;20219;-79
2022/03/13 21:28:10;;;;;;;4.43;2.60;;;12.20;99.90;;;;;;6658308;88;20198;-80
2022/03/13 21:38:11;;;;;;;5.32;2.78;;;11.80;99.90;;;;;;6648235;88;20198;-80
2022/03/13 21:48:12;;;;;;;3.57;2.20;;;11.80;99.90;;;;;;6644910;88;20192;-79
2022/03/13 21:58:13;;;;;;;4.60;3.00;;;11.70;99.90;;;;;;6652334;88;20192;-81
2022/03/13 22:08:14;;;;;;;3.70;1.90;;;11.60;99.90;;;;;;6644936;89;20204;-79
2022/03/13 22:18:16;;;;;;;3.45;1.85;;;11.80;99.90;;;;;;6658449;89;20197;-79
2022/03/13 22:28:17;;;;;;;3.65;1.90;;;11.60;99.90;;;;;;6660656;88;20247;-78
2022/03/13 22:38:18;;;;;;;3.40;2.00;;;11.40;99.90;;;;;;6652816;89;20427;-78
2022/03/13 22:48:19;;;;;;;3.20;1.77;;;11.30;99.90;;;;;;6657170;89;20334;-78
2022/03/13 22:58:25;;;;;;;3.50;1.80;;;11.40;99.90;;;;;;6657721;88;20254;-79
2022/03/13 23:08:26;;;;;;;4.03;1.73;;;11.30;99.90;;;;;;6639251;89;20224;-77
2022/03/13 23:18:29;;;;;;;3.53;1.70;;;11.20;99.90;;;;;;6652545;89;20600;-78
2022/03/13 23:38:39;;;;;;;3.10;1.62;;;11.50;99.90;;;;;;6732925;88;20200;-78
2022/03/13 23:48:42;;;;;;;3.67;1.80;;;11.20;99.90;;;;;;6731780;88;20182;-79
2022/03/13 23:58:46;;;;;;;4.45;2.60;;;11.00;99.90;;;;;;6732344;88;20573;-76
